Time;durP1;ratioP1;P1;durP2;ratioP2;P2;SDS_P1;SDS_P2;PMS_P1;PMS_P2;Temp;Humidity;BMP_temperature;BMP_pressure;BME280_temperature;BME280_humidity;BME280_pressure;Samples;Min_cycle;Max_cycle;Signal;HPM_P1;HPM_P2
2023/03/20 00:00:15;;;;;;;22.43;13.80;;;9.10;99.90;;;;;;5094453;28;20071;-52
2023/03/20 00:02:41;;;;;;;25.47;13.60;;;9.10;99.90;;;;;;5094398;28;20032;-47
2023/03/20 00:05:27;;;;;;;24.07;12.93;;;9.10;99.90;;;;;;5094108;28;20047;-47
2023/03/20 00:07:54;;;;;;;21.60;12.67;;;9.00;99.90;;;;;;5094377;28;20082;-54
2023/03/20 00:10:21;;;;;;;21.77;12.57;;;9.00;99.90;;;;;;5094172;28;20074;-49
2023/03/20 00:12:48;;;;;;;24.00;12.23;;;9.00;99.90;;;;;;5094278;28;20122;-52
2023/03/20 00:15:28;;;;;;;20.40;12.37;;;8.90;99.90;;;;;;5093883;28;20093;-49
2023/03/20 00:17:54;;;;;;;;;;;8.90;99.90;;;;;;5094818;28;20038;-52
2023/03/20 00:20:20;;;;;;;21.07;12.07;;;8.90;99.90;;;;;;5094334;28;19908;-52
2023/03/20 00:22:46;;;;;;;19.57;12.73;;;8.90;99.90;;;;;;5094528;28;20434;-50
2023/03/20 00:25:15;;;;;;;21.87;12.67;;;9.00;99.90;;;;;;5093941;28;20123;-50
2023/03/20 00:27:42;;;;;;;21.48;12.38;;;9.00;99.90;;;;;;5093719;28;20373;-52
2023/03/20 00:30:22;;;;;;;20.77;13.03;;;9.00;99.90;;;;;;5082863;22;20044;-52
2023/03/20 00:32:51;;;;;;;19.03;11.27;;;9.00;99.90;;;;;;5073839;28;20534;-54
2023/03/20 00:35:27;;;;;;;18.83;10.47;;;9.00;99.90;;;;;;5073155;28;20021;-50
2023/03/20 00:37:55;;;;;;;14.83;9.07;;;9.00;99.90;;;;;;5073406;28;20028;-55
2023/03/20 00:40:21;;;;;;;15.13;8.67;;;9.00;99.90;;;;;;5081573;28;20036;-52
2023/03/20 00:42:52;;;;;;;13.23;8.67;;;9.00;99.90;;;;;;5093764;28;20035;-54
2023/03/20 00:45:20;;;;;;;16.77;8.80;;;9.00;99.90;;;;;;5093540;28;20036;-49
2023/03/20 00:47:48;;;;;;;16.03;8.43;;;9.00;99.90;;;;;;5093440;28;20036;-50
2023/03/20 00:50:25;;;;;;;15.20;8.63;;;8.90;99.90;;;;;;5093439;28;20046;-51
2023/03/20 00:52:52;;;;;;;15.70;9.13;;;8.90;99.90;;;;;;5093524;28;20469;-51
2023/03/20 00:55:20;;;;;;;15.40;9.10;;;8.90;99.90;;;;;;5093381;28;20611;-51
2023/03/20 00:57:48;;;;;;;16.02;9.20;;;8.80;99.90;;;;;;5075036;28;20020;-49
2023/03/20 01:00:39;;;;;;;15.47;8.97;;;8.80;99.90;;;;;;5074166;28;20424;-50
2023/03/20 01:03:21;;;;;;;15.90;9.03;;;8.80;99.90;;;;;;5075101;28;20036;-52
2023/03/20 01:05:48;;;;;;;13.83;8.83;;;8.80;99.90;;;;;;5093449;28;20327;-51
2023/03/20 01:08:20;;;;;;;16.67;9.37;;;8.80;99.90;;;;;;5074880;28;20055;-52
2023/03/20 01:10:51;;;;;;;15.27;9.30;;;8.80;99.90;;;;;;5093142;28;20017;-52
2023/03/20 01:13:25;;;;;;;;;;;8.80;99.90;;;;;;5093729;28;20475;-53
2023/03/20 01:15:52;;;;;;;13.23;8.27;;;8.80;99.90;;;;;;5093092;28;19908;-50
2023/03/20 01:18:20;;;;;;;17.10;9.40;;;8.80;99.90;;;;;;5074734;28;20404;-50
2023/03/20 01:20:46;;;;;;;18.17;8.90;;;8.70;99.90;;;;;;5092854;28;20036;-51
2023/03/20 01:23:13;;;;;;;16.97;9.30;;;8.70;99.90;;;;;;5093020;28;20119;-48
2023/03/20 01:25:40;;;;;;;16.30;9.43;;;8.70;99.90;;;;;;5092740;28;20100;-52
2023/03/20 01:28:26;;;;;;;16.97;9.07;;;8.70;99.90;;;;;;5074404;28;20024;-53
2023/03/20 01:30:51;;;;;;;15.67;9.07;;;8.80;99.90;;;;;;5092628;28;20119;-52
2023/03/20 01:33:19;;;;;;;16.50;9.60;;;8.80;99.90;;;;;;5092746;28;20056;-48
2023/03/20 01:35:50;;;;;;;15.17;9.07;;;8.80;99.90;;;;;;5074761;28;20024;-49
2023/03/20 01:38:26;;;;;;;17.43;9.27;;;8.80;99.90;;;;;;5074302;28;20024;-53
2023/03/20 01:41:11;;;;;;;15.88;8.77;;;8.80;99.90;;;;;;5074466;28;20032;-52
2023/03/20 01:43:39;;;;;;;18.40;8.27;;;8.80;99.90;;;;;;5074205;28;20032;-50
2023/03/20 01:46:08;;;;;;;15.93;8.87;;;8.70;99.90;;;;;;5074215;28;20523;-52
2023/03/20 01:49:00;;;;;;;15.68;8.75;;;8.70;99.90;;;;;;5073908;28;20024;-53
2023/03/20 01:51:31;;;;;;;17.23;9.07;;;8.70;99.90;;;;;;5092429;28;20153;-49
2023/03/20 01:54:11;;;;;;;16.10;8.43;;;8.70;99.90;;;;;;5074057;28;20024;-48
2023/03/20 01:56:49;;;;;;;16.50;8.53;;;8.70;99.90;;;;;;5074021;28;20028;-51
2023/03/20 01:59:24;;;;;;;20.88;8.93;;;8.60;99.90;;;;;;5073987;28;20036;-51
2023/03/20 02:01:50;;;;;;;16.67;8.63;;;8.60;99.90;;;;;;5074098;28;20112;-53
2023/03/20 02:04:25;;;;;;;13.63;8.03;;;8.60;99.90;;;;;;5073794;28;20036;-54
2023/03/20 02:06:55;;;;;;;14.03;7.80;;;8.60;99.90;;;;;;5073778;28;20031;-53
2023/03/20 02:09:33;;;;;;;14.55;8.40;;;8.60;99.90;;;;;;5091829;28;20495;-49
2023/03/20 02:12:02;;;;;;;13.80;8.20;;;8.50;99.90;;;;;;5073858;28;20377;-52
2023/03/20 02:14:30;;;;;;;13.87;8.63;;;8.50;99.90;;;;;;5073518;28;20031;-53
2023/03/20 02:17:07;;;;;;;13.37;7.77;;;8.50;99.90;;;;;;5073561;28;20101;-53
2023/03/20 02:20:02;;;;;;;14.83;8.07;;;8.50;99.90;;;;;;5073614;28;20085;-51
2023/03/20 02:22:49;;;;;;;13.73;7.83;;;8.50;99.90;;;;;;5091658;28;20024;-53
2023/03/20 02:25:36;;;;;;;14.70;7.93;;;8.50;99.90;;;;;;5073584;28;20087;-53
2023/03/20 02:28:27;;;;;;;14.50;8.27;;;8.50;99.90;;;;;;5073344;28;20123;-51
2023/03/20 02:31:26;;;;;;;14.20;7.87;;;8.50;99.90;;;;;;5073106;28;20122;-52
2023/03/20 02:34:16;;;;;;;12.83;7.30;;;8.50;99.90;;;;;;5073132;28;20077;-52
2023/03/20 02:36:45;;;;;;;14.18;7.88;;;8.50;99.90;;;;;;5073050;28;20035;-53
2023/03/20 02:39:26;;;;;;;13.63;7.53;;;8.50;99.90;;;;;;5091389;28;20028;-52
2023/03/20 02:42:21;;;;;;;10.90;6.70;;;8.40;99.90;;;;;;5091514;28;20035;-53
2023/03/20 02:45:32;;;;;;;13.53;7.30;;;8.40;99.90;;;;;;5072877;28;20036;-50
2023/03/20 02:48:11;;;;;;;15.53;7.80;;;8.40;99.90;;;;;;4992204;28;20068;-50
2023/03/20 02:51:17;;;;;;;12.73;6.63;;;8.40;99.90;;;;;;4992274;28;20081;-51
2023/03/20 02:54:07;;;;;;;11.67;7.07;;;8.40;99.90;;;;;;4987279;28;20033;-54
2023/03/20 02:56:32;;;;;;;;;;;8.50;99.90;;;;;;5069397;28;20032;-52
2023/03/20 02:59:06;;;;;;;13.50;7.50;;;8.50;99.90;;;;;;5072973;28;20219;-50
2023/03/20 03:01:40;;;;;;;11.87;6.73;;;8.50;99.90;;;;;;5091005;28;20028;-52
2023/03/20 03:04:18;;;;;;;12.17;7.20;;;8.50;99.90;;;;;;5090805;28;20539;-52
2023/03/20 03:06:47;;;;;;;12.97;7.40;;;8.50;99.90;;;;;;5072988;28;20028;-53
2023/03/20 03:09:22;;;;;;;13.13;7.47;;;8.50;99.90;;;;;;5072651;28;20579;-51
2023/03/20 03:11:52;;;;;;;15.13;7.87;;;8.50;99.90;;;;;;5072774;28;20426;-51
2023/03/20 03:14:35;;;;;;;13.20;7.30;;;8.40;99.90;;;;;;5091114;28;20028;-52
2023/03/20 03:17:04;;;;;;;17.90;8.90;;;8.50;99.90;;;;;;5072684;28;20369;-53
2023/03/20 03:19:32;;;;;;;16.92;8.32;;;8.50;99.90;;;;;;5090782;28;20111;-53
2023/03/20 03:21:59;;;;;;;14.93;8.20;;;8.40;99.90;;;;;;5072782;28;20067;-53
2023/03/20 03:24:32;;;;;;;16.37;8.93;;;8.40;99.90;;;;;;5071808;28;20081;-53
2023/03/20 03:27:01;;;;;;;16.17;8.37;;;8.40;99.90;;;;;;5072259;28;20508;-51
2023/03/20 03:29:32;;;;;;;17.67;8.75;;;8.40;99.90;;;;;;5072396;28;20192;-49
2023/03/20 03:32:01;;;;;;;16.30;9.17;;;8.40;99.90;;;;;;5072503;28;20077;-50
2023/03/20 03:34:27;;;;;;;17.40;9.30;;;8.30;99.90;;;;;;5072453;28;20028;-52
2023/03/20 03:37:25;;;;;;;17.27;9.50;;;8.30;99.90;;;;;;5072283;28;20533;-52
2023/03/20 03:40:07;;;;;;;18.93;10.03;;;8.30;99.90;;;;;;5055276;28;20085;-52
2023/03/20 03:42:50;;;;;;;19.17;10.63;;;8.30;99.90;;;;;;5090746;28;20036;-53
2023/03/20 03:45:30;;;;;;;22.60;10.40;;;8.30;99.90;;;;;;5072381;28;20396;-50
2023/03/20 03:48:09;;;;;;;19.07;10.50;;;8.30;99.90;;;;;;5072193;28;20035;-53
2023/03/20 03:50:47;;;;;;;21.53;11.00;;;8.30;99.90;;;;;;5072356;28;20035;-53
2023/03/20 03:53:16;;;;;;;19.47;10.70;;;8.30;99.90;;;;;;5090492;28;20475;-53
2023/03/20 03:55:47;;;;;;;22.60;11.07;;;8.30;99.90;;;;;;5090213;28;20098;-52
2023/03/20 03:58:25;;;;;;;22.27;11.10;;;8.40;99.90;;;;;;5071997;28;20024;-53
2023/03/20 04:00:53;;;;;;;21.70;11.90;;;8.30;99.90;;;;;;5072231;28;20024;-52
2023/03/20 04:03:23;;;;;;;19.77;10.33;;;8.40;99.90;;;;;;5072036;28;20051;-53
2023/03/20 04:05:53;;;;;;;20.43;10.83;;;8.40;99.90;;;;;;5090356;28;20027;-52
2023/03/20 04:08:19;;;;;;;21.53;11.23;;;8.30;99.90;;;;;;5072061;28;20024;-49
2023/03/20 04:10:45;;;;;;;19.80;10.93;;;8.30;99.90;;;;;;5072024;28;20032;-50
2023/03/20 04:13:11;;;;;;;19.30;10.20;;;8.30;99.90;;;;;;5072167;28;20028;-49
2023/03/20 04:15:37;;;;;;;19.17;10.67;;;8.30;99.90;;;;;;5071868;28;20027;-53
2023/03/20 04:18:05;;;;;;;20.90;11.47;;;8.30;99.90;;;;;;5072021;28;20028;-53
2023/03/20 04:20:31;;;;;;;20.73;10.73;;;8.30;99.90;;;;;;5071987;28;20036;-52
2023/03/20 04:22:57;;;;;;;22.40;11.50;;;8.30;99.90;;;;;;5072021;28;20028;-52
2023/03/20 04:25:25;;;;;;;25.20;11.63;;;8.20;99.90;;;;;;5071742;28;20032;-52
2023/03/20 04:27:54;;;;;;;25.20;12.23;;;8.20;99.90;;;;;;5089881;28;20404;-50
2023/03/20 04:30:38;;;;;;;24.57;12.37;;;8.20;99.90;;;;;;5090324;28;20081;-52
2023/03/20 04:33:20;;;;;;;23.93;12.77;;;8.20;99.90;;;;;;5071984;28;20230;-52
2023/03/20 04:36:15;;;;;;;25.90;13.63;;;8.20;99.90;;;;;;5020256;28;20034;-48
2023/03/20 04:38:41;;;;;;;28.07;14.50;;;8.10;99.90;;;;;;5075511;28;20035;-49
2023/03/20 04:41:07;;;;;;;30.03;14.63;;;8.10;99.90;;;;;;5075410;28;20032;-48
2023/03/20 04:43:34;;;;;;;29.67;14.33;;;8.10;99.90;;;;;;5075343;28;20518;-48
2023/03/20 04:46:00;;;;;;;28.60;14.63;;;8.10;99.90;;;;;;5093705;28;20028;-48
2023/03/20 04:48:26;;;;;;;31.27;15.37;;;8.00;99.90;;;;;;5075432;28;20442;-50
2023/03/20 04:50:53;;;;;;;28.93;15.03;;;8.00;99.90;;;;;;5075256;28;20020;-50
2023/03/20 04:53:24;;;;;;;32.07;16.53;;;8.00;99.90;;;;;;5075187;28;20442;-50
2023/03/20 04:55:50;;;;;;;33.20;16.20;;;8.00;99.90;;;;;;5075281;28;20028;-49
2023/03/20 04:58:16;;;;;;;34.23;15.73;;;8.00;99.90;;;;;;5093219;28;20484;-51
2023/03/20 05:00:44;;;;;;;35.00;16.00;;;8.00;99.90;;;;;;5075110;28;20073;-50
2023/03/20 05:03:10;;;;;;;32.10;15.83;;;7.90;99.90;;;;;;5075231;28;20036;-51
2023/03/20 05:05:36;;;;;;;34.00;15.57;;;7.90;99.90;;;;;;5093163;28;20036;-49
2023/03/20 05:08:05;;;;;;;36.57;16.10;;;7.90;99.90;;;;;;5074780;28;20047;-50
2023/03/20 05:10:34;;;;;;;41.40;16.60;;;7.80;99.90;;;;;;5074815;28;20032;-52
2023/03/20 05:13:10;;;;;;;32.77;15.43;;;7.80;99.90;;;;;;5074872;28;20556;-50
2023/03/20 05:15:56;;;;;;;31.63;15.20;;;7.80;99.90;;;;;;5092547;28;20633;-51
2023/03/20 05:18:42;;;;;;;32.70;15.47;;;7.70;99.90;;;;;;5092167;28;20148;-53
2023/03/20 05:21:31;;;;;;;;;;;7.70;99.90;;;;;;5075702;28;20102;-52
2023/03/20 05:24:17;;;;;;;27.83;14.20;;;7.70;99.90;;;;;;5078439;28;19921;-49
2023/03/20 05:27:05;;;;;;;31.57;13.97;;;7.60;99.90;;;;;;5074596;28;20370;-52
2023/03/20 05:29:44;;;;;;;25.80;13.45;;;7.60;99.90;;;;;;5074453;28;20039;-51
2023/03/20 05:32:28;;;;;;;30.77;14.27;;;7.60;99.90;;;;;;5093269;28;20089;-49
2023/03/20 05:35:14;;;;;;;21.93;11.33;;;7.60;99.90;;;;;;5060946;28;20066;-51
2023/03/20 05:37:45;;;;;;;22.00;11.83;;;7.60;99.90;;;;;;5074431;28;20503;-51
2023/03/20 05:40:40;;;;;;;21.67;10.60;;;7.60;99.90;;;;;;5074526;28;20062;-50
2023/03/20 05:43:15;;;;;;;21.83;10.40;;;7.60;99.90;;;;;;5092866;28;20040;-52
2023/03/20 05:46:01;;;;;;;22.17;10.60;;;7.60;99.90;;;;;;5074323;28;20151;-53
2023/03/20 05:48:44;;;;;;;24.87;10.57;;;7.50;99.90;;;;;;5074001;28;20081;-51
2023/03/20 05:51:28;;;;;;;24.13;11.23;;;7.50;99.90;;;;;;5092758;28;20438;-50
2023/03/20 05:54:14;;;;;;;18.53;9.43;;;7.50;99.90;;;;;;5091397;28;20120;-51
2023/03/20 05:56:39;;;;;;;19.60;9.87;;;7.50;99.90;;;;;;5092222;28;20059;-53
2023/03/20 05:59:25;;;;;;;21.37;10.90;;;7.50;99.90;;;;;;5074091;28;20024;-50
2023/03/20 06:02:20;;;;;;;22.90;10.60;;;7.40;99.90;;;;;;5070448;28;20040;-52
2023/03/20 06:04:57;;;;;;;22.80;10.93;;;7.40;99.90;;;;;;5073939;28;20028;-52
2023/03/20 06:07:28;;;;;;;22.33;11.23;;;7.40;99.90;;;;;;5073809;28;20073;-53
2023/03/20 06:10:05;;;;;;;26.50;12.27;;;7.50;99.90;;;;;;5073718;28;20035;-52
2023/03/20 06:12:31;;;;;;;27.67;12.17;;;7.50;99.90;;;;;;5073855;28;20028;-53
2023/03/20 06:14:57;;;;;;;27.30;14.20;;;7.40;99.90;;;;;;5091770;28;20081;-53
2023/03/20 06:17:24;;;;;;;23.63;12.00;;;7.40;99.90;;;;;;5073697;28;20053;-53
2023/03/20 06:19:57;;;;;;;24.37;11.13;;;7.50;99.90;;;;;;5073693;28;20101;-51
2023/03/20 06:22:23;;;;;;;18.67;9.60;;;7.40;99.90;;;;;;5091981;28;20614;-54
2023/03/20 06:24:48;;;;;;;18.23;9.47;;;7.40;99.90;;;;;;5073532;28;20036;-52
2023/03/20 06:27:14;;;;;;;19.00;9.23;;;7.40;99.90;;;;;;5073473;28;20492;-50
2023/03/20 06:29:41;;;;;;;21.47;10.00;;;7.40;99.90;;;;;;5073120;28;20178;-49
2023/03/20 06:32:21;;;;;;;19.10;9.20;;;7.40;99.90;;;;;;5068375;28;20048;-55
2023/03/20 06:34:49;;;;;;;19.45;9.30;;;7.40;99.90;;;;;;5069673;28;20082;-55
2023/03/20 06:37:15;;;;;;;19.37;9.00;;;7.40;99.90;;;;;;5069710;28;20315;-54
2023/03/20 06:39:41;;;;;;;20.57;9.20;;;7.40;99.90;;;;;;5069907;28;20040;-54
2023/03/20 06:42:11;;;;;;;17.90;8.50;;;7.50;99.90;;;;;;5049956;28;20075;-56
2023/03/20 06:44:39;;;;;;;17.33;8.43;;;7.40;99.90;;;;;;5049858;28;20485;-55
2023/03/20 06:47:13;;;;;;;16.63;8.47;;;7.50;99.90;;;;;;5049903;28;20033;-54
2023/03/20 06:49:38;;;;;;;19.27;9.77;;;7.60;99.90;;;;;;5049592;28;20040;-54
2023/03/20 06:52:05;;;;;;;19.73;9.00;;;7.60;99.90;;;;;;5032999;28;20124;-55
2023/03/20 06:54:32;;;;;;;21.07;8.77;;;7.60;99.90;;;;;;5049409;28;20025;-54
2023/03/20 06:56:58;;;;;;;20.03;9.27;;;7.70;99.90;;;;;;5049396;28;20086;-52
2023/03/20 06:59:24;;;;;;;19.80;9.20;;;7.80;99.90;;;;;;5031912;28;20048;-56
2023/03/20 07:01:55;;;;;;;17.93;8.67;;;7.90;99.90;;;;;;5049555;28;20480;-53
2023/03/20 07:04:21;;;;;;;16.17;7.80;;;7.90;99.90;;;;;;5049400;28;20388;-55
2023/03/20 07:06:51;;;;;;;14.83;7.93;;;8.00;99.90;;;;;;5032608;28;20021;-55
2023/03/20 07:09:17;;;;;;;16.43;7.57;;;8.10;99.90;;;;;;5050536;28;20432;-54
2023/03/20 07:11:43;;;;;;;17.40;7.90;;;8.10;99.90;;;;;;5032681;28;20024;-56
2023/03/20 07:14:10;;;;;;;19.93;8.33;;;8.00;99.90;;;;;;5049146;28;20078;-54
2023/03/20 07:16:59;;;;;;;17.42;8.40;;;8.10;99.90;;;;;;5049131;28;20025;-54
2023/03/20 07:19:25;;;;;;;19.23;9.03;;;8.00;99.90;;;;;;5050871;28;20044;-55
2023/03/20 07:22:00;;;;;;;19.77;8.67;;;8.10;99.90;;;;;;5032539;28;20512;-52
2023/03/20 07:24:27;;;;;;;15.83;8.23;;;8.10;99.90;;;;;;5048913;28;20064;-55
2023/03/20 07:26:52;;;;;;;24.63;10.10;;;8.20;99.90;;;;;;5032465;28;20079;-56
2023/03/20 07:29:20;;;;;;;18.73;9.17;;;8.10;99.90;;;;;;5049238;28;20347;-56
2023/03/20 07:31:45;;;;;;;21.57;9.87;;;8.20;99.90;;;;;;5049008;28;20397;-52
2023/03/20 07:34:17;;;;;;;21.10;9.43;;;8.20;99.90;;;;;;5032346;28;20067;-53
2023/03/20 07:36:44;;;;;;;19.80;9.30;;;8.30;99.90;;;;;;5048877;28;20112;-54
2023/03/20 07:39:15;;;;;;;19.60;9.33;;;8.30;99.90;;;;;;5032367;28;20424;-54
2023/03/20 07:41:47;;;;;;;20.83;9.37;;;8.40;99.90;;;;;;5032520;28;20033;-53
2023/03/20 07:44:24;;;;;;;23.37;10.47;;;8.60;99.90;;;;;;5048722;28;20033;-55
2023/03/20 07:46:51;;;;;;;22.47;9.43;;;8.70;99.90;;;;;;5048866;28;20052;-54
2023/03/20 07:49:17;;;;;;;27.10;11.77;;;8.70;99.90;;;;;;5048804;28;20371;-53
2023/03/20 07:51:45;;;;;;;21.43;9.87;;;8.60;99.90;;;;;;5049284;28;20057;-54
2023/03/20 07:54:12;;;;;;;24.27;11.33;;;8.60;99.90;;;;;;5048850;28;20059;-55
2023/03/20 07:56:37;;;;;;;27.20;11.00;;;8.80;99.90;;;;;;5050273;28;20104;-55
2023/03/20 07:59:03;;;;;;;25.37;11.33;;;8.80;99.90;;;;;;5050169;28;20451;-54
2023/03/20 08:01:29;;;;;;;23.80;10.70;;;8.90;99.90;;;;;;5050465;28;20041;-50
2023/03/20 08:03:55;;;;;;;22.03;10.03;;;9.00;99.90;;;;;;5050211;28;20040;-50
2023/03/20 08:06:21;;;;;;;19.67;9.80;;;9.00;99.90;;;;;;5050546;28;20109;-50
2023/03/20 08:08:49;;;;;;;23.80;10.00;;;9.20;99.90;;;;;;5050498;28;20112;-47
2023/03/20 08:11:15;;;;;;;20.03;9.30;;;9.30;99.90;;;;;;5053612;28;20033;-46
2023/03/20 08:13:40;;;;;;;18.80;9.03;;;9.40;99.90;;;;;;5054353;28;20499;-49
2023/03/20 08:16:06;;;;;;;21.93;10.23;;;9.40;99.90;;;;;;5054409;28;20047;-52
2023/03/20 08:18:32;;;;;;;16.17;8.30;;;9.50;99.90;;;;;;5053995;28;20146;-54
2023/03/20 08:20:58;;;;;;;19.20;8.40;;;9.60;99.90;;;;;;5053003;28;20059;-53
2023/03/20 08:23:23;;;;;;;16.57;8.30;;;9.50;99.90;;;;;;5053971;28;20033;-54
2023/03/20 08:25:50;;;;;;;19.50;8.13;;;9.70;99.90;;;;;;5054051;28;20028;-51
2023/03/20 08:28:17;;;;;;;16.37;7.77;;;9.80;99.90;;;;;;5053871;28;20025;-56
2023/03/20 08:30:43;;;;;;;17.03;7.03;;;9.80;99.90;;;;;;5053833;28;20039;-53
2023/03/20 08:33:09;;;;;;;18.27;8.20;;;9.80;99.90;;;;;;5053868;28;20025;-51
2023/03/20 08:35:35;;;;;;;17.67;7.97;;;9.90;99.90;;;;;;5053893;28;20029;-56
2023/03/20 08:38:01;;;;;;;13.20;6.50;;;9.80;99.90;;;;;;5053801;28;20083;-55
2023/03/20 08:40:28;;;;;;;20.60;8.37;;;9.80;99.90;;;;;;5053863;28;20045;-55
2023/03/20 08:42:53;;;;;;;17.37;6.27;;;9.70;99.90;;;;;;5053931;28;20025;-52
2023/03/20 08:45:19;;;;;;;15.07;6.60;;;9.70;99.90;;;;;;5053692;28;20087;-56
2023/03/20 08:47:48;;;;;;;12.03;5.87;;;9.70;99.90;;;;;;5053525;28;20116;-53
2023/03/20 08:50:15;;;;;;;12.48;5.35;;;9.60;99.90;;;;;;5053364;28;20444;-52
2023/03/20 08:52:42;;;;;;;17.10;6.43;;;9.70;99.90;;;;;;5053540;28;20044;-55
2023/03/20 08:55:12;;;;;;;16.17;6.23;;;9.60;99.90;;;;;;5051932;28;20036;-52
2023/03/20 08:57:39;;;;;;;13.67;5.43;;;9.70;99.90;;;;;;5053089;28;20116;-51
2023/03/20 09:00:06;;;;;;;16.77;5.70;;;9.70;99.90;;;;;;5052901;28;20052;-53
2023/03/20 09:02:32;;;;;;;14.03;4.90;;;9.70;99.90;;;;;;5053330;28;20068;-54
2023/03/20 09:04:58;;;;;;;12.57;4.60;;;9.60;99.90;;;;;;5052944;28;20482;-55
2023/03/20 09:07:23;;;;;;;13.43;4.80;;;9.70;99.90;;;;;;5052769;28;20033;-53
2023/03/20 09:09:49;;;;;;;15.03;4.57;;;9.70;99.90;;;;;;5052773;28;20037;-56
2023/03/20 09:12:15;;;;;;;11.03;4.27;;;9.80;99.90;;;;;;5052932;28;20033;-51
2023/03/20 09:14:41;;;;;;;10.77;3.83;;;9.90;99.90;;;;;;5052617;28;20440;-51
2023/03/20 09:17:07;;;;;;;10.37;3.83;;;9.90;99.90;;;;;;5052589;28;20112;-54
2023/03/20 09:19:34;;;;;;;10.70;3.43;;;9.90;99.90;;;;;;5034976;28;20203;-51
2023/03/20 09:22:00;;;;;;;10.57;3.20;;;9.90;99.90;;;;;;5051744;28;20390;-55
2023/03/20 09:24:25;;;;;;;9.87;3.17;;;9.90;99.90;;;;;;5052537;28;20572;-55
2023/03/20 09:26:51;;;;;;;8.90;2.90;;;10.00;99.90;;;;;;5034683;28;20175;-53
2023/03/20 09:29:17;;;;;;;8.17;2.87;;;9.90;99.90;;;;;;5052269;28;20029;-53
2023/03/20 09:31:43;;;;;;;8.13;2.83;;;9.90;99.90;;;;;;5052507;28;20110;-54
2023/03/20 09:34:09;;;;;;;7.13;2.60;;;9.90;99.90;;;;;;5052474;28;20040;-54
2023/03/20 09:36:35;;;;;;;7.83;2.50;;;9.90;99.90;;;;;;5052320;28;20465;-54
2023/03/20 09:39:00;;;;;;;9.83;2.80;;;9.90;99.90;;;;;;5052488;28;20037;-52
2023/03/20 09:41:27;;;;;;;8.30;2.93;;;9.90;99.90;;;;;;5052430;28;20029;-55
2023/03/20 09:44:13;;;;;;;6.93;1.90;;;9.80;99.90;;;;;;5051952;28;20036;-53
2023/03/20 09:47:01;;;;;;;9.17;2.63;;;9.80;99.90;;;;;;5052487;28;20032;-55
2023/03/20 09:50:03;;;;;;;6.20;2.10;;;9.80;99.90;;;;;;5052134;28;20036;-57
2023/03/20 09:52:42;;;;;;;9.20;2.57;;;9.80;99.90;;;;;;5052479;28;20101;-57
2023/03/20 09:55:19;;;;;;;7.97;2.20;;;9.90;99.90;;;;;;5051999;28;20028;-55
2023/03/20 09:57:51;;;;;;;12.73;2.30;;;10.00;99.90;;;;;;5051974;28;20031;-55
2023/03/20 10:00:24;;;;;;;9.83;2.50;;;10.00;99.90;;;;;;5051956;28;20048;-53
2023/03/20 10:03:07;;;;;;;4.67;1.73;;;10.10;99.90;;;;;;5051932;28;20037;-55
2023/03/20 10:05:46;;;;;;;8.50;2.30;;;10.10;99.90;;;;;;5051957;28;20056;-55
2023/03/20 10:08:17;;;;;;;7.63;2.55;;;10.00;99.90;;;;;;5051746;28;20059;-55
2023/03/20 10:10:54;;;;;;;7.97;2.40;;;10.00;99.90;;;;;;5051740;28;20033;-56
2023/03/20 10:13:59;;;;;;;4.20;1.97;;;10.10;99.90;;;;;;5051485;28;20021;-55
2023/03/20 10:16:47;;;;;;;8.20;2.30;;;10.20;99.90;;;;;;5051207;28;20504;-56
2023/03/20 10:19:35;;;;;;;6.70;2.30;;;10.20;99.90;;;;;;5051565;28;20059;-54
2023/03/20 10:22:10;;;;;;;7.97;2.97;;;10.20;99.90;;;;;;5051513;28;20033;-55
2023/03/20 10:24:43;;;;;;;7.03;2.70;;;10.10;99.90;;;;;;5051295;28;20021;-55
2023/03/20 10:27:22;;;;;;;6.20;2.40;;;10.10;99.90;;;;;;5051322;28;20514;-53
2023/03/20 10:30:14;;;;;;;5.95;2.58;;;10.10;99.90;;;;;;5049789;28;20120;-54
2023/03/20 10:32:57;;;;;;;9.37;2.77;;;10.10;99.90;;;;;;5033177;28;20406;-54
2023/03/20 10:35:25;;;;;;;8.00;2.60;;;10.10;99.90;;;;;;5051050;28;20029;-54
2023/03/20 10:38:28;;;;;;;6.53;2.50;;;10.10;99.90;;;;;;5050998;28;20056;-54
2023/03/20 10:40:56;;;;;;;5.17;2.20;;;10.20;99.90;;;;;;5051373;28;20036;-53
2023/03/20 10:43:28;;;;;;;7.95;2.33;;;10.20;99.90;;;;;;5051057;28;20033;-54
2023/03/20 10:46:24;;;;;;;6.43;2.30;;;10.20;99.90;;;;;;5051098;28;20037;-54
2023/03/20 10:49:18;;;;;;;7.50;1.80;;;10.30;99.90;;;;;;5040121;28;20044;-55
2023/03/20 10:51:51;;;;;;;5.97;2.07;;;10.30;99.90;;;;;;5051077;28;20389;-56
2023/03/20 10:54:26;;;;;;;8.23;2.53;;;10.30;99.90;;;;;;5050691;28;20025;-54
2023/03/20 10:56:55;;;;;;;5.63;1.73;;;10.30;99.90;;;;;;5050669;28;20086;-55
2023/03/20 10:59:22;;;;;;;;;;;10.20;99.90;;;;;;5051281;28;20068;-56
2023/03/20 11:01:48;;;;;;;6.57;2.00;;;10.20;99.90;;;;;;5050958;28;20003;-56
2023/03/20 11:04:14;;;;;;;7.23;2.37;;;10.30;99.90;;;;;;5032686;28;20378;-55
2023/03/20 11:06:56;;;;;;;7.53;1.90;;;10.20;99.90;;;;;;5050461;28;20040;-55
2023/03/20 11:09:25;;;;;;;10.60;2.17;;;10.10;99.90;;;;;;5050466;28;20401;-55
2023/03/20 11:11:56;;;;;;;6.25;1.73;;;10.10;99.90;;;;;;5050515;28;20025;-57
2023/03/20 11:14:25;;;;;;;6.70;1.60;;;10.10;99.90;;;;;;5050506;28;20040;-56
2023/03/20 11:16:53;;;;;;;5.82;2.08;;;10.20;99.90;;;;;;5050429;28;20033;-56
2023/03/20 11:19:20;;;;;;;6.20;1.80;;;10.30;99.90;;;;;;5050365;28;20036;-55
2023/03/20 11:21:59;;;;;;;6.60;1.77;;;10.20;99.90;;;;;;5050381;28;20082;-57
2023/03/20 11:24:26;;;;;;;8.37;2.10;;;10.30;99.90;;;;;;5050236;28;20035;-56
2023/03/20 11:26:54;;;;;;;7.47;1.80;;;10.20;99.90;;;;;;5050284;28;20480;-57
2023/03/20 11:29:30;;;;;;;7.00;2.00;;;10.40;99.90;;;;;;5050527;28;20417;-56
2023/03/20 11:32:23;;;;;;;10.90;2.13;;;10.40;99.90;;;;;;5050253;28;20036;-56
2023/03/20 11:34:49;;;;;;;7.27;2.07;;;10.40;99.90;;;;;;5035767;28;20037;-56
2023/03/20 11:37:25;;;;;;;7.57;2.10;;;10.40;99.90;;;;;;5049980;28;20035;-56
2023/03/20 11:39:58;;;;;;;5.93;2.20;;;10.50;99.90;;;;;;5050154;28;20036;-55
2023/03/20 11:42:26;;;;;;;6.70;2.10;;;10.60;99.90;;;;;;5050253;28;20036;-55
2023/03/20 11:44:57;;;;;;;8.98;2.40;;;10.50;99.90;;;;;;5049977;28;20584;-59
2023/03/20 11:47:26;;;;;;;10.57;2.37;;;10.50;99.90;;;;;;5049888;28;20040;-55
2023/03/20 11:49:58;;;;;;;7.13;1.95;;;10.30;99.90;;;;;;5049977;28;20514;-54
2023/03/20 11:52:39;;;;;;;7.10;2.57;;;10.30;99.90;;;;;;5050191;28;20037;-53
2023/03/20 11:55:33;;;;;;;7.23;2.67;;;10.20;99.90;;;;;;5049967;28;20029;-56
2023/03/20 11:58:02;;;;;;;7.27;2.70;;;10.00;99.90;;;;;;5050064;28;20550;-55
2023/03/20 12:00:35;;;;;;;9.20;2.25;;;9.80;99.90;;;;;;5032493;28;20028;-55
2023/03/20 12:03:01;;;;;;;6.77;2.13;;;9.80;99.90;;;;;;5030051;28;20462;-54
2023/03/20 12:05:28;;;;;;;12.10;3.10;;;9.80;99.90;;;;;;5047202;28;20104;-52
2023/03/20 12:08:02;;;;;;;7.03;2.30;;;9.60;99.90;;;;;;5047679;28;20477;-51
2023/03/20 12:10:35;;;;;;;9.50;2.70;;;9.50;99.90;;;;;;5048031;28;20493;-54
2023/03/20 12:13:27;;;;;;;7.77;2.07;;;9.50;99.90;;;;;;5046839;28;20036;-55
2023/03/20 12:15:58;;;;;;;7.67;3.00;;;9.50;99.90;;;;;;5044453;28;20037;-50
2023/03/20 12:18:32;;;;;;;8.03;2.30;;;9.60;99.90;;;;;;5042004;28;20021;-51
2023/03/20 12:21:43;;;;;;;11.40;2.80;;;9.60;99.90;;;;;;5046007;28;20190;-52
2023/03/20 12:24:41;;;;;;;9.00;2.43;;;9.60;99.90;;;;;;5044288;28;20363;-52
2023/03/20 12:27:28;;;;;;;9.10;2.70;;;9.50;99.90;;;;;;5028816;28;20021;-53
2023/03/20 12:30:03;;;;;;;10.30;3.23;;;9.60;99.90;;;;;;5045369;28;20033;-52
2023/03/20 12:32:35;;;;;;;8.87;2.97;;;9.80;99.90;;;;;;5045653;28;20033;-54
2023/03/20 12:35:28;;;;;;;8.80;2.53;;;10.10;99.90;;;;;;5046887;28;20492;-55
2023/03/20 12:37:54;;;;;;;9.50;3.03;;;10.20;99.90;;;;;;5035118;28;20029;-51
2023/03/20 12:40:44;;;;;;;7.40;2.40;;;10.50;99.90;;;;;;5046866;28;20029;-52
2023/03/20 12:43:26;;;;;;;11.10;3.03;;;10.50;99.90;;;;;;5044980;28;20725;-54
2023/03/20 12:46:26;;;;;;;8.77;2.77;;;10.60;99.90;;;;;;5060818;22;20044;-54
2023/03/20 12:49:15;;;;;;;12.77;3.63;;;10.40;99.90;;;;;;4999090;28;20067;-53
2023/03/20 12:51:59;;;;;;;9.68;3.10;;;10.20;99.90;;;;;;4990142;28;20465;-48
2023/03/20 12:54:59;;;;;;;8.00;2.90;;;10.10;99.90;;;;;;5008124;28;20026;-49
2023/03/20 12:57:49;;;;;;;7.37;3.17;;;10.00;99.90;;;;;;5009524;28;20033;-48
2023/03/20 13:00:39;;;;;;;9.67;3.00;;;10.00;99.90;;;;;;5010739;28;20049;-46
2023/03/20 13:03:49;;;;;;;9.57;3.17;;;10.10;99.90;;;;;;5010794;28;20117;-48
2023/03/20 13:06:21;;;;;;;10.47;3.20;;;10.10;99.90;;;;;;5008714;28;20049;-47
2023/03/20 13:09:08;;;;;;;11.57;3.63;;;10.10;99.90;;;;;;5011453;28;20030;-49
2023/03/20 13:12:08;;;;;;;8.17;2.90;;;10.10;99.90;;;;;;5011733;28;20037;-50
2023/03/20 13:14:43;;;;;;;;;;;10.10;99.90;;;;;;5012199;28;20022;-52
2023/03/20 13:17:27;;;;;;;14.47;4.03;;;10.10;99.90;;;;;;5010469;28;19948;-47
2023/03/20 13:20:21;;;;;;;11.30;2.97;;;10.10;99.90;;;;;;5011876;28;20065;-51